sensor_id;sensor_type;location;lat;lon;timestamp;pressure;altitude;pressure_sealevel;temperature;humidity
84496;BME280;74855;51.206;17.408;2023-12-22T09:55:21;96915.97;;;8.12;53.66
84496;BME280;74855;51.206;17.408;2023-12-22T10:00:18;96902.06;;;7.08;56.65
84496;BME280;74855;51.206;17.408;2023-12-22T10:05:14;96920.50;;;6.32;57.35
84496;BME280;74855;51.206;17.408;2023-12-22T10:10:11;96910.69;;;5.72;58.97
84496;BME280;74855;51.206;17.408;2023-12-22T10:15:11;96910.31;;;5.33;60.66
84496;BME280;74855;51.206;17.408;2023-12-22T10:20:09;96946.97;;;5.01;62.06
84496;BME280;74855;51.206;17.408;2023-12-22T10:25:08;96944.19;;;4.70;63.21
84496;BME280;74855;51.206;17.408;2023-12-22T10:30:04;96944.00;;;4.45;64.10
84496;BME280;74855;51.206;17.408;2023-12-22T10:35:02;96942.59;;;4.32;65.08
84496;BME280;74855;51.206;17.408;2023-12-22T10:39:59;96953.16;;;4.48;63.41
84496;BME280;74855;51.206;17.408;2023-12-22T10:44:55;96961.59;;;4.60;61.39
84496;BME280;74855;51.206;17.408;2023-12-22T10:49:52;96939.47;;;4.67;61.45
84496;BME280;74855;51.206;17.408;2023-12-22T10:54:49;96946.81;;;4.75;62.69
84496;BME280;74855;51.206;17.408;2023-12-22T10:59:46;96939.53;;;4.77;62.39
84496;BME280;74855;51.206;17.408;2023-12-22T11:04:47;96946.09;;;5.32;61.31
84496;BME280;74855;51.206;17.408;2023-12-22T11:09:50;96942.91;;;5.25;61.01
84496;BME280;74855;51.206;17.408;2023-12-22T11:14:46;96957.75;;;5.09;59.77
84496;BME280;74855;51.206;17.408;2023-12-22T11:19:42;96967.56;;;4.92;60.06
84496;BME280;74855;51.206;17.408;2023-12-22T11:24:40;96957.91;;;4.93;61.83
84496;BME280;74855;51.206;17.408;2023-12-22T11:29:40;96955.56;;;4.91;60.22
84496;BME280;74855;51.206;17.408;2023-12-22T11:34:38;96970.72;;;5.51;59.26
84496;BME280;74855;51.206;17.408;2023-12-22T11:39:35;96955.75;;;7.00;56.00
84496;BME280;74855;51.206;17.408;2023-12-22T11:44:31;96965.81;;;7.57;52.28
84496;BME280;74855;51.206;17.408;2023-12-22T11:49:33;96964.41;;;7.01;50.96
84496;BME280;74855;51.206;17.408;2023-12-22T11:54:47;96946.66;;;6.27;52.74
84496;BME280;74855;51.206;17.408;2023-12-22T11:59:44;96944.66;;;5.67;52.61
84496;BME280;74855;51.206;17.408;2023-12-22T12:04:41;96961.34;;;5.50;54.16
84496;BME280;74855;51.206;17.408;2023-12-22T12:09:45;96958.19;;;5.43;53.10
84496;BME280;74855;51.206;17.408;2023-12-22T12:14:45;96974.81;;;5.32;54.32
84496;BME280;74855;51.206;17.408;2023-12-22T12:19:47;96975.91;;;5.36;55.07
84496;BME280;74855;51.206;17.408;2023-12-22T12:24:43;96973.22;;;5.26;55.07
84496;BME280;74855;51.206;17.408;2023-12-22T12:29:39;96959.88;;;5.17;54.42
84496;BME280;74855;51.206;17.408;2023-12-22T12:34:36;96979.97;;;5.17;54.19
84496;BME280;74855;51.206;17.408;2023-12-22T12:39:34;96951.81;;;5.24;53.49
84496;BME280;74855;51.206;17.408;2023-12-22T12:44:30;96931.06;;;5.02;51.68
84496;BME280;74855;51.206;17.408;2023-12-22T12:49:26;96965.47;;;5.36;51.92
84496;BME280;74855;51.206;17.408;2023-12-22T12:54:22;96964.69;;;5.46;51.68
84496;BME280;74855;51.206;17.408;2023-12-22T12:59:19;96966.34;;;5.67;50.35
84496;BME280;74855;51.206;17.408;2023-12-22T13:04:15;96965.63;;;5.82;51.04
84496;BME280;74855;51.206;17.408;2023-12-22T13:09:11;96983.22;;;6.01;50.29
84496;BME280;74855;51.206;17.408;2023-12-22T13:14:07;96965.47;;;6.29;49.15
84496;BME280;74855;51.206;17.408;2023-12-22T13:19:04;96992.16;;;6.31;48.67
84496;BME280;74855;51.206;17.408;2023-12-22T13:24:10;96965.94;;;5.95;49.38
84496;BME280;74855;51.206;17.408;2023-12-22T13:29:13;96959.06;;;5.79;50.01
84496;BME280;74855;51.206;17.408;2023-12-22T13:34:12;96984.34;;;5.58;48.95
84496;BME280;74855;51.206;17.408;2023-12-22T13:39:08;96980.34;;;5.41;49.89
84496;BME280;74855;51.206;17.408;2023-12-22T13:44:05;96981.09;;;5.31;50.29
84496;BME280;74855;51.206;17.408;2023-12-22T13:49:01;96965.94;;;5.28;50.36
84496;BME280;74855;51.206;17.408;2023-12-22T13:53:58;96974.78;;;5.22;50.73
84496;BME280;74855;51.206;17.408;2023-12-22T13:58:54;96966.38;;;5.10;51.68
84496;BME280;74855;51.206;17.408;2023-12-22T14:03:50;97012.25;;;5.01;51.28
84496;BME280;74855;51.206;17.408;2023-12-22T14:08:46;96986.06;;;4.86;51.76
84496;BME280;74855;51.206;17.408;2023-12-22T14:13:44;96977.56;;;4.68;51.93
84496;BME280;74855;51.206;17.408;2023-12-22T14:18:39;96978.50;;;4.52;51.90
84496;BME280;74855;51.206;17.408;2023-12-22T14:23:35;96995.63;;;4.43;53.48
84496;BME280;74855;51.206;17.408;2023-12-22T14:28:31;96979.66;;;4.34;52.15
84496;BME280;74855;51.206;17.408;2023-12-22T14:33:28;96995.22;;;4.29;53.25
84496;BME280;74855;51.206;17.408;2023-12-22T14:38:24;96996.50;;;4.22;53.69
84496;BME280;74855;51.206;17.408;2023-12-22T14:43:22;97000.84;;;4.16;54.47
84496;BME280;74855;51.206;17.408;2023-12-22T14:48:18;97002.63;;;4.11;54.59
84496;BME280;74855;51.206;17.408;2023-12-22T14:53:15;97013.22;;;4.04;52.92
84496;BME280;74855;51.206;17.408;2023-12-22T14:58:11;97009.78;;;3.98;53.46
84496;BME280;74855;51.206;17.408;2023-12-22T15:03:07;97011.50;;;3.88;54.50
84496;BME280;74855;51.206;17.408;2023-12-22T15:08:03;97021.78;;;3.78;54.29
84496;BME280;74855;51.206;17.408;2023-12-22T15:13:00;97049.69;;;3.77;54.58
84496;BME280;74855;51.206;17.408;2023-12-22T15:17:56;97041.88;;;3.77;54.79
84496;BME280;74855;51.206;17.408;2023-12-22T15:22:56;97064.03;;;3.80;55.39
84496;BME280;74855;51.206;17.408;2023-12-22T15:27:52;97047.16;;;3.82;55.59
84496;BME280;74855;51.206;17.408;2023-12-22T15:32:49;97062.28;;;3.85;55.67
84496;BME280;74855;51.206;17.408;2023-12-22T15:37:48;97064.66;;;3.87;55.52
84496;BME280;74855;51.206;17.408;2023-12-22T15:42:44;97072.22;;;3.88;55.90
84496;BME280;74855;51.206;17.408;2023-12-22T15:47:39;97064.66;;;3.87;55.90
84496;BME280;74855;51.206;17.408;2023-12-22T15:52:37;97081.63;;;3.89;55.53
84496;BME280;74855;51.206;17.408;2023-12-22T15:57:32;97092.56;;;3.91;55.77
84496;BME280;74855;51.206;17.408;2023-12-22T16:02:28;97078.75;;;3.91;55.56
84496;BME280;74855;51.206;17.408;2023-12-22T16:07:24;97089.44;;;3.89;55.93
84496;BME280;74855;51.206;17.408;2023-12-22T16:12:21;97074.84;;;3.88;55.90
84496;BME280;74855;51.206;17.408;2023-12-22T16:17:17;97089.34;;;3.84;55.21
84496;BME280;74855;51.206;17.408;2023-12-22T16:22:13;97094.75;;;3.78;55.55
84496;BME280;74855;51.206;17.408;2023-12-22T16:27:08;97097.00;;;3.69;55.26
84496;BME280;74855;51.206;17.408;2023-12-22T16:32:06;97112.97;;;3.56;56.10
84496;BME280;74855;51.206;17.408;2023-12-22T16:37:03;97102.88;;;3.43;55.45
84496;BME280;74855;51.206;17.408;2023-12-22T16:41:58;97104.56;;;3.32;56.82
84496;BME280;74855;51.206;17.408;2023-12-22T16:46:54;97103.44;;;3.28;56.22
84496;BME280;74855;51.206;17.408;2023-12-22T16:51:52;97107.00;;;3.22;56.90
84496;BME280;74855;51.206;17.408;2023-12-22T16:56:48;97103.06;;;3.19;56.98
84496;BME280;74855;51.206;17.408;2023-12-22T17:01:44;97110.78;;;3.14;57.92
84496;BME280;74855;51.206;17.408;2023-12-22T17:06:45;97095.88;;;3.10;57.22
84496;BME280;74855;51.206;17.408;2023-12-22T17:11:42;97113.53;;;3.08;57.76
84496;BME280;74855;51.206;17.408;2023-12-22T17:16:38;97089.66;;;3.11;56.79
84496;BME280;74855;51.206;17.408;2023-12-22T17:21:34;97097.63;;;3.04;57.37
84496;BME280;74855;51.206;17.408;2023-12-22T17:26:29;97124.75;;;3.08;57.52
84496;BME280;74855;51.206;17.408;2023-12-22T17:31:27;97131.69;;;3.03;57.02
84496;BME280;74855;51.206;17.408;2023-12-22T17:36:23;97128.91;;;2.93;57.86
84496;BME280;74855;51.206;17.408;2023-12-22T17:41:18;97126.41;;;2.98;58.08
84496;BME280;74855;51.206;17.408;2023-12-22T17:46:14;97131.69;;;3.03;57.97
84496;BME280;74855;51.206;17.408;2023-12-22T17:51:11;97119.94;;;3.00;58.00
84496;BME280;74855;51.206;17.408;2023-12-22T17:56:07;97124.25;;;2.95;58.03
84496;BME280;74855;51.206;17.408;2023-12-22T18:01:03;97135.22;;;2.97;57.64
84496;BME280;74855;51.206;17.408;2023-12-22T18:05:59;97138.16;;;3.00;58.46
84496;BME280;74855;51.206;17.408;2023-12-22T18:10:56;97146.03;;;3.05;58.19
84496;BME280;74855;51.206;17.408;2023-12-22T18:15:52;97147.63;;;3.06;59.10
84496;BME280;74855;51.206;17.408;2023-12-22T18:20:48;97146.66;;;2.96;59.69
84496;BME280;74855;51.206;17.408;2023-12-22T18:25:44;97137.66;;;2.87;61.13
84496;BME280;74855;51.206;17.408;2023-12-22T18:30:41;97121.56;;;2.73;62.80
84496;BME280;74855;51.206;17.408;2023-12-22T18:35:37;97130.44;;;2.60;64.21
84496;BME280;74855;51.206;17.408;2023-12-22T18:40:32;97124.28;;;2.50;64.12
84496;BME280;74855;51.206;17.408;2023-12-22T18:45:28;97135.25;;;2.40;64.18
84496;BME280;74855;51.206;17.408;2023-12-22T18:50:25;97151.56;;;2.35;63.12
84496;BME280;74855;51.206;17.408;2023-12-22T18:55:21;97151.47;;;2.30;63.19
84496;BME280;74855;51.206;17.408;2023-12-22T19:00:16;97156.31;;;2.27;62.68
84496;BME280;74855;51.206;17.408;2023-12-22T19:05:12;97152.03;;;2.21;62.51
84496;BME280;74855;51.206;17.408;2023-12-22T19:10:10;97156.53;;;2.25;62.45
84496;BME280;74855;51.206;17.408;2023-12-22T19:15:06;97159.50;;;2.29;62.24
84496;BME280;74855;51.206;17.408;2023-12-22T19:20:04;97172.81;;;2.32;61.94
84496;BME280;74855;51.206;17.408;2023-12-22T19:25:00;97163.06;;;2.39;62.03
84496;BME280;74855;51.206;17.408;2023-12-22T19:29:57;97162.47;;;2.49;61.25
84496;BME280;74855;51.206;17.408;2023-12-22T19:34:54;97174.06;;;2.58;61.36
84496;BME280;74855;51.206;17.408;2023-12-22T19:39:50;97166.94;;;2.65;61.10
84496;BME280;74855;51.206;17.408;2023-12-22T19:44:45;97172.22;;;2.70;61.33
84496;BME280;74855;51.206;17.408;2023-12-22T19:49:43;97183.19;;;2.72;61.52
84496;BME280;74855;51.206;17.408;2023-12-22T19:54:38;97175.84;;;2.69;61.14
84496;BME280;74855;51.206;17.408;2023-12-22T19:59:34;97186.50;;;2.68;61.46
84496;BME280;74855;51.206;17.408;2023-12-22T20:04:30;97181.31;;;2.56;62.29
84496;BME280;74855;51.206;17.408;2023-12-22T20:09:28;97181.47;;;2.50;62.40
84496;BME280;74855;51.206;17.408;2023-12-22T20:14:23;97184.63;;;2.52;62.88
84496;BME280;74855;51.206;17.408;2023-12-22T20:19:19;97180.91;;;2.48;63.36
84496;BME280;74855;51.206;17.408;2023-12-22T20:24:15;97190.97;;;2.44;63.37
84496;BME280;74855;51.206;17.408;2023-12-22T20:29:12;97195.06;;;2.40;63.65
84496;BME280;74855;51.206;17.408;2023-12-22T20:34:08;97197.09;;;2.38;63.68
84496;BME280;74855;51.206;17.408;2023-12-22T20:39:04;97197.78;;;2.33;64.12
84496;BME280;74855;51.206;17.408;2023-12-22T20:43:59;97218.56;;;2.33;64.11
84496;BME280;74855;51.206;17.408;2023-12-22T20:48:56;97247.03;;;2.40;64.30
84496;BME280;74855;51.206;17.408;2023-12-22T20:53:52;97217.22;;;2.42;63.96
84496;BME280;74855;51.206;17.408;2023-12-22T20:58:48;97233.91;;;2.47;63.78
84496;BME280;74855;51.206;17.408;2023-12-22T21:03:43;97226.91;;;2.47;63.20
84496;BME280;74855;51.206;17.408;2023-12-22T21:08:40;97232.44;;;2.51;62.69
84496;BME280;74855;51.206;17.408;2023-12-22T21:13:36;97229.03;;;2.50;62.70
84496;BME280;74855;51.206;17.408;2023-12-22T21:18:32;97246.56;;;2.55;61.79
84496;BME280;74855;51.206;17.408;2023-12-22T21:23:28;97230.94;;;2.66;60.81
84496;BME280;74855;51.206;17.408;2023-12-22T21:28:25;97230.81;;;2.73;60.88
84496;BME280;74855;51.206;17.408;2023-12-22T21:33:21;97223.31;;;2.76;59.86
84496;BME280;74855;51.206;17.408;2023-12-22T21:38:17;97218.69;;;2.78;60.97
84496;BME280;74855;51.206;17.408;2023-12-22T21:43:13;97205.09;;;2.76;60.24
84496;BME280;74855;51.206;17.408;2023-12-22T21:48:11;97193.59;;;2.72;58.87
84496;BME280;74855;51.206;17.408;2023-12-22T21:53:08;97218.81;;;2.72;58.96
84496;BME280;74855;51.206;17.408;2023-12-22T21:58:04;97230.22;;;2.71;59.74
84496;BME280;74855;51.206;17.408;2023-12-22T22:03:00;97238.50;;;2.68;60.61
84496;BME280;74855;51.206;17.408;2023-12-22T22:07:57;97244.38;;;2.63;60.75
84496;BME280;74855;51.206;17.408;2023-12-22T22:12:53;97253.78;;;2.64;60.92
84496;BME280;74855;51.206;17.408;2023-12-22T22:17:49;97232.75;;;2.66;59.95
84496;BME280;74855;51.206;17.408;2023-12-22T22:22:46;97249.13;;;2.66;60.05
84496;BME280;74855;51.206;17.408;2023-12-22T22:27:43;97239.66;;;2.60;60.69
84496;BME280;74855;51.206;17.408;2023-12-22T22:32:39;97240.44;;;2.61;60.10
84496;BME280;74855;51.206;17.408;2023-12-22T22:37:34;97236.72;;;2.57;60.91
84496;BME280;74855;51.206;17.408;2023-12-22T22:42:30;97258.78;;;2.54;60.40
84496;BME280;74855;51.206;17.408;2023-12-22T22:47:28;97258.69;;;2.49;60.21
84496;BME280;74855;51.206;17.408;2023-12-22T22:52:24;97257.75;;;2.43;59.75
84496;BME280;74855;51.206;17.408;2023-12-22T22:57:20;97260.84;;;2.40;59.69
84496;BME280;74855;51.206;17.408;2023-12-22T23:02:15;97249.88;;;2.38;59.69
84496;BME280;74855;51.206;17.408;2023-12-22T23:07:12;97260.75;;;2.35;59.14
84496;BME280;74855;51.206;17.408;2023-12-22T23:12:08;97269.53;;;2.34;59.77
84496;BME280;74855;51.206;17.408;2023-12-22T23:17:04;97270.78;;;2.32;59.45
84496;BME280;74855;51.206;17.408;2023-12-22T23:21:59;97270.47;;;2.28;60.18
84496;BME280;74855;51.206;17.408;2023-12-22T23:26:56;97279.72;;;2.24;60.19
84496;BME280;74855;51.206;17.408;2023-12-22T23:31:52;97276.09;;;2.25;60.74
84496;BME280;74855;51.206;17.408;2023-12-22T23:36:48;97286.28;;;2.27;60.99
84496;BME280;74855;51.206;17.408;2023-12-22T23:41:44;97271.78;;;2.31;60.77
84496;BME280;74855;51.206;17.408;2023-12-22T23:46:42;97275.75;;;2.33;61.02
84496;BME280;74855;51.206;17.408;2023-12-22T23:51:38;97272.47;;;2.38;61.38
84496;BME280;74855;51.206;17.408;2023-12-22T23:56:33;97286.34;;;2.43;61.50
